Time;durP1;ratioP1;P1;durP2;ratioP2;P2;SDS_P1;SDS_P2;PMS_P1;PMS_P2;Temp;Humidity;BMP_temperature;BMP_pressure;BME280_temperature;BME280_humidity;BME280_pressure;Samples;Min_cycle;Max_cycle;Signal;HPM_P1;HPM_P2
2020/12/06 00:01:37;;;;;;;34.35;10.30;;;;;;;;;;5006864;28;20034;-56
2020/12/06 00:04:06;;;;;;;31.02;9.32;;;;;;;;;;5007890;28;20471;-56
2020/12/06 00:06:32;;;;;;;36.30;9.88;;;;;;;;;;5007635;28;20050;-55
2020/12/06 00:08:58;;;;;;;51.50;9.48;;;;;;;;;;5008325;28;20120;-55
2020/12/06 00:11:24;;;;;;;40.00;9.68;;;;;;;;;;5007120;28;20148;-56
2020/12/06 00:13:50;;;;;;;32.40;9.93;;;;;;;;;;5008767;28;20038;-55
2020/12/06 00:16:20;;;;;;;45.17;9.73;;;;;;;;;;5009416;28;20045;-56
2020/12/06 00:18:47;;;;;;;43.50;11.20;;;;;;;;;;5008677;28;20148;-57
2020/12/06 00:21:14;;;;;;;45.15;10.35;;;;;;;;;;5010274;28;20094;-54
2020/12/06 00:23:39;;;;;;;42.65;10.38;;;;;;;;;;5007972;28;20494;-56
2020/12/06 00:26:05;;;;;;;54.67;11.68;;;;;;;;;;5008462;28;20061;-57
2020/12/06 00:28:31;;;;;;;43.05;10.13;;;;;;;;;;5001229;28;20037;-57
2020/12/06 00:30:57;;;;;;;47.47;11.45;;;;;;;;;;5007879;28;20150;-55
2020/12/06 00:33:23;;;;;;;37.45;10.88;;;;;;;;;;5007072;28;20047;-54
2020/12/06 00:35:49;;;;;;;35.25;8.93;;;;;;;;;;5008913;28;20876;-56
2020/12/06 00:38:15;;;;;;;24.38;6.28;;;;;;;;;;5008533;28;20124;-56
2020/12/06 00:40:41;;;;;;;22.17;5.60;;;;;;;;;;5007134;28;20046;-56
2020/12/06 00:43:06;;;;;;;27.50;5.05;;;;;;;;;;5008161;28;20519;-57
2020/12/06 00:45:32;;;;;;;34.92;7.03;;;;;;;;;;5008622;28;20561;-56
2020/12/06 00:47:58;;;;;;;35.83;6.47;;;;;;;;;;5007737;28;20046;-58
2020/12/06 00:50:24;;;;;;;21.05;5.57;;;;;;;;;;5005777;28;20033;-57
2020/12/06 00:52:50;;;;;;;29.25;6.65;;;;;;;;;;5006965;28;20045;-55
2020/12/06 00:55:16;;;;;;;33.30;6.63;;;;;;;;;;5008580;28;20042;-57
2020/12/06 00:57:41;;;;;;;37.97;6.53;;;;;;;;;;5007741;28;20050;-55
2020/12/06 01:00:08;;;;;;;32.38;7.38;;;;;;;;;;5007978;28;20106;-53
2020/12/06 01:02:34;;;;;;;27.90;6.25;;;;;;;;;;5006521;28;20109;-55
2020/12/06 01:05:00;;;;;;;35.92;6.72;;;;;;;;;;5007477;28;20073;-56
2020/12/06 01:07:26;;;;;;;31.60;7.07;;;;;;;;;;5008084;28;20532;-56
2020/12/06 01:09:52;;;;;;;37.85;6.93;;;;;;;;;;5007601;28;20057;-54
2020/12/06 01:12:17;;;;;;;23.05;6.07;;;;;;;;;;5006956;28;20057;-56
2020/12/06 01:14:43;;;;;;;26.42;5.32;;;;;;;;;;5007395;28;20068;-57
2020/12/06 01:17:09;;;;;;;24.52;6.07;;;;;;;;;;5007754;28;20093;-57
2020/12/06 01:19:35;;;;;;;23.75;5.70;;;;;;;;;;5007372;28;20050;-56
2020/12/06 01:22:01;;;;;;;21.70;5.45;;;;;;;;;;5006699;28;20042;-53
2020/12/06 01:24:26;;;;;;;29.00;5.43;;;;;;;;;;5006379;28;20038;-56
2020/12/06 01:26:52;;;;;;;28.80;6.10;;;;;;;;;;5004896;28;20056;-55
2020/12/06 01:29:18;;;;;;;23.27;5.22;;;;;;;;;;5006265;28;20148;-56
2020/12/06 01:31:47;;;;;;;27.85;5.57;;;;;;;;;;5006942;28;20077;-57
2020/12/06 01:34:14;;;;;;;19.60;5.30;;;;;;;;;;5006031;28;20114;-57
2020/12/06 01:36:40;;;;;;;18.63;4.32;;;;;;;;;;5006291;28;20041;-57
2020/12/06 01:39:06;;;;;;;16.90;4.55;;;;;;;;;;5003814;28;20064;-57
2020/12/06 01:41:32;;;;;;;26.20;4.70;;;;;;;;;;5002388;28;20053;-58
2020/12/06 01:44:00;;;;;;;22.90;4.75;;;;;;;;;;5005476;28;20050;-57
2020/12/06 01:46:26;;;;;;;22.05;6.10;;;;;;;;;;5004993;28;20065;-57
2020/12/06 01:48:52;;;;;;;19.08;4.85;;;;;;;;;;5005363;28;20044;-57
2020/12/06 01:51:18;;;;;;;20.65;4.78;;;;;;;;;;5007349;28;20118;-56
2020/12/06 01:53:45;;;;;;;20.52;4.43;;;;;;;;;;5007729;28;20109;-57
2020/12/06 01:56:11;;;;;;;16.25;4.10;;;;;;;;;;5005743;28;21174;-57
2020/12/06 01:58:37;;;;;;;20.23;4.22;;;;;;;;;;5006256;28;20049;-57
2020/12/06 02:01:03;;;;;;;21.05;4.38;;;;;;;;;;5005535;28;20061;-55
2020/12/06 02:03:29;;;;;;;24.15;4.47;;;;;;;;;;5005260;28;20038;-57
2020/12/06 02:05:56;;;;;;;18.15;3.80;;;;;;;;;;5006600;28;20062;-57
2020/12/06 02:08:22;;;;;;;18.73;3.97;;;;;;;;;;5006269;28;20045;-57
2020/12/06 02:10:48;;;;;;;12.48;4.70;;;;;;;;;;5003337;28;20042;-57
2020/12/06 02:13:13;;;;;;;16.90;3.83;;;;;;;;;;5007025;28;20499;-56
2020/12/06 02:15:39;;;;;;;17.02;3.92;;;;;;;;;;5007293;28;20049;-57
2020/12/06 02:18:05;;;;;;;16.83;4.93;;;;;;;;;;5004679;28;20045;-57
2020/12/06 02:20:31;;;;;;;16.70;4.18;;;;;;;;;;5004685;28;20050;-57
2020/12/06 02:22:59;;;;;;;18.70;4.57;;;;;;;;;;5005080;28;20382;-55
2020/12/06 02:25:25;;;;;;;15.48;4.63;;;;;;;;;;5006361;28;20078;-56
2020/12/06 02:27:51;;;;;;;18.85;5.05;;;;;;;;;;5004624;28;20049;-57
2020/12/06 02:30:16;;;;;;;23.35;5.55;;;;;;;;;;5004054;28;20038;-56
2020/12/06 02:32:42;;;;;;;15.93;5.22;;;;;;;;;;5003444;28;20042;-57
2020/12/06 02:35:08;;;;;;;15.23;5.80;;;;;;;;;;5005995;28;20096;-57
2020/12/06 02:37:34;;;;;;;16.67;6.07;;;;;;;;;;5003582;28;20045;-56
2020/12/06 02:40:00;;;;;;;23.75;6.03;;;;;;;;;;5006236;28;20216;-60
2020/12/06 02:42:26;;;;;;;20.88;5.32;;;;;;;;;;5008002;28;20518;-57
2020/12/06 02:44:52;;;;;;;26.02;5.90;;;;;;;;;;5005445;28;20041;-55
2020/12/06 02:47:17;;;;;;;19.25;5.40;;;;;;;;;;5006009;28;20062;-56
2020/12/06 02:49:43;;;;;;;16.20;5.18;;;;;;;;;;5008818;28;20223;-56
2020/12/06 02:52:09;;;;;;;15.55;4.72;;;;;;;;;;5005306;28;20061;-53
2020/12/06 02:54:35;;;;;;;14.38;5.20;;;;;;;;;;5006596;28;20356;-56
2020/12/06 02:57:01;;;;;;;24.48;5.22;;;;;;;;;;5008845;28;20042;-56
2020/12/06 02:59:27;;;;;;;25.85;4.78;;;;;;;;;;5005529;28;20042;-56
2020/12/06 03:01:52;;;;;;;14.60;4.25;;;;;;;;;;5007199;28;20129;-56
2020/12/06 03:04:18;;;;;;;19.40;4.35;;;;;;;;;;5010251;28;20152;-56
2020/12/06 03:06:44;;;;;;;19.48;4.35;;;;;;;;;;5009204;28;20122;-56
2020/12/06 03:09:10;;;;;;;14.63;3.70;;;;;;;;;;5008633;28;20045;-56
2020/12/06 03:11:36;;;;;;;19.27;4.60;;;;;;;;;;5007199;28;20673;-57
2020/12/06 03:14:02;;;;;;;17.55;3.97;;;;;;;;;;5007531;28;20033;-57
2020/12/06 03:16:28;;;;;;;16.20;4.32;;;;;;;;;;5010123;28;22127;-57
2020/12/06 03:18:53;;;;;;;20.98;4.25;;;;;;;;;;5009272;28;20595;-56
2020/12/06 03:21:19;;;;;;;18.80;4.35;;;;;;;;;;5009719;28;20042;-57
2020/12/06 03:23:45;;;;;;;15.35;4.72;;;;;;;;;;5010559;28;20090;-54
2020/12/06 03:26:11;;;;;;;13.88;4.50;;;;;;;;;;5010411;28;20058;-57
2020/12/06 03:28:37;;;;;;;22.17;5.15;;;;;;;;;;5008494;28;20045;-56
2020/12/06 03:31:03;;;;;;;13.40;3.90;;;;;;;;;;5008873;28;20052;-55
2020/12/06 03:33:28;;;;;;;18.77;4.03;;;;;;;;;;5009079;28;20161;-57
2020/12/06 03:35:54;;;;;;;13.27;4.00;;;;;;;;;;5007952;28;20318;-56
2020/12/06 03:38:20;;;;;;;18.65;4.32;;;;;;;;;;5007355;28;20044;-56
2020/12/06 03:40:46;;;;;;;19.25;4.65;;;;;;;;;;5006248;28;20107;-57
2020/12/06 03:43:12;;;;;;;17.02;4.22;;;;;;;;;;5009385;28;20042;-57
2020/12/06 03:45:38;;;;;;;17.88;4.40;;;;;;;;;;5007477;28;20044;-54
2020/12/06 03:48:04;;;;;;;23.15;4.38;;;;;;;;;;5007528;28;20037;-57
2020/12/06 03:50:30;;;;;;;17.42;5.97;;;;;;;;;;5007049;28;20046;-57
2020/12/06 03:52:55;;;;;;;19.33;4.20;;;;;;;;;;5007982;28;20046;-56
2020/12/06 03:55:21;;;;;;;18.88;6.35;;;;;;;;;;5008522;28;20615;-56
2020/12/06 03:57:47;;;;;;;14.05;4.10;;;;;;;;;;5008960;28;20564;-57
2020/12/06 04:00:13;;;;;;;14.88;4.13;;;;;;;;;;5005126;28;20045;-57
2020/12/06 04:02:39;;;;;;;20.38;5.18;;;;;;;;;;5009049;28;20034;-54
2020/12/06 04:05:05;;;;;;;14.45;5.20;;;;;;;;;;5009264;28;20118;-57
2020/12/06 04:07:31;;;;;;;15.65;4.78;;;;;;;;;;5006458;28;20050;-56
2020/12/06 04:09:57;;;;;;;18.55;5.45;;;;;;;;;;5007965;28;20034;-55
2020/12/06 04:12:23;;;;;;;22.55;4.85;;;;;;;;;;5007964;28;20057;-56
2020/12/06 04:14:49;;;;;;;16.73;5.13;;;;;;;;;;5008235;28;20254;-55
2020/12/06 04:17:15;;;;;;;24.95;5.40;;;;;;;;;;5009660;28;20891;-57
2020/12/06 04:19:41;;;;;;;20.05;5.05;;;;;;;;;;5006947;28;20601;-56
2020/12/06 04:22:06;;;;;;;19.75;5.20;;;;;;;;;;5008288;28;20572;-56
2020/12/06 04:24:33;;;;;;;22.67;6.00;;;;;;;;;;5008357;28;20041;-58
2020/12/06 04:26:59;;;;;;;17.20;5.65;;;;;;;;;;5009504;28;20054;-58
2020/12/06 04:29:25;;;;;;;16.83;5.80;;;;;;;;;;5007074;28;20050;-57
2020/12/06 04:31:51;;;;;;;15.65;5.68;;;;;;;;;;5009113;28;20044;-56
2020/12/06 04:34:17;;;;;;;17.75;5.65;;;;;;;;;;5024887;28;20125;-56
2020/12/06 04:36:43;;;;;;;16.13;5.03;;;;;;;;;;5007678;28;20035;-56
2020/12/06 04:39:09;;;;;;;21.08;4.60;;;;;;;;;;5008880;28;20033;-56
2020/12/06 04:41:35;;;;;;;19.95;5.35;;;;;;;;;;5007338;28;20046;-56
2020/12/06 04:44:00;;;;;;;18.77;4.55;;;;;;;;;;5008727;28;20033;-56
2020/12/06 04:46:27;;;;;;;14.45;4.90;;;;;;;;;;5008598;28;20097;-55
2020/12/06 04:49:11;;;;;;;14.57;4.50;;;;;;;;;;5007876;28;20061;-56
2020/12/06 04:51:41;;;;;;;16.25;4.78;;;;;;;;;;5007808;28;20041;-56
2020/12/06 04:54:08;;;;;;;12.15;3.80;;;;;;;;;;5007804;28;20511;-55
2020/12/06 04:56:34;;;;;;;21.15;4.68;;;;;;;;;;5007284;28;20047;-55
2020/12/06 04:59:01;;;;;;;12.70;4.90;;;;;;;;;;5007474;28;20042;-56
2020/12/06 05:01:37;;;;;;;20.25;4.63;;;;;;;;;;5006110;28;20588;-56
2020/12/06 05:04:10;;;;;;;16.05;5.10;;;;;;;;;;5008335;28;20065;-56
2020/12/06 05:06:39;;;;;;;10.88;4.18;;;;;;;;;;5006961;28;20049;-56
2020/12/06 05:09:15;;;;;;;14.25;4.32;;;;;;;;;;5007992;28;20042;-56
2020/12/06 05:11:42;;;;;;;14.02;5.28;;;;;;;;;;5004957;28;20033;-55
2020/12/06 05:14:08;;;;;;;14.50;4.13;;;;;;;;;;5007080;28;20078;-56
2020/12/06 05:16:37;;;;;;;21.25;5.57;;;;;;;;;;5007188;28;20216;-55
2020/12/06 05:19:04;;;;;;;16.80;4.13;;;;;;;;;;5008525;28;20102;-57
2020/12/06 05:21:36;;;;;;;15.52;3.88;;;;;;;;;;5006936;28;20105;-57
2020/12/06 05:24:02;;;;;;;14.00;3.78;;;;;;;;;;5009605;28;20034;-56
2020/12/06 05:26:29;;;;;;;14.65;4.30;;;;;;;;;;5007410;28;20291;-56
2020/12/06 05:28:55;;;;;;;15.40;3.95;;;;;;;;;;5006606;28;20041;-56
2020/12/06 05:31:24;;;;;;;12.93;4.40;;;;;;;;;;5007531;28;20053;-59
2020/12/06 05:33:50;;;;;;;15.40;5.13;;;;;;;;;;5008958;28;20041;-55
2020/12/06 05:36:16;;;;;;;15.18;4.65;;;;;;;;;;5007369;28;20041;-54
2020/12/06 05:38:42;;;;;;;14.70;5.18;;;;;;;;;;5006788;28;20491;-59
2020/12/06 05:41:08;;;;;;;18.33;4.90;;;;;;;;;;5004150;28;20049;-58
2020/12/06 05:43:34;;;;;;;15.57;4.97;;;;;;;;;;5005124;28;20061;-58
2020/12/06 05:46:03;;;;;;;27.20;5.95;;;;;;;;;;5006556;28;20113;-57
2020/12/06 05:48:30;;;;;;;14.68;5.18;;;;;;;;;;5004601;28;20037;-57
2020/12/06 05:50:56;;;;;;;20.42;5.82;;;;;;;;;;5005643;28;20034;-58
2020/12/06 05:53:23;;;;;;;16.55;6.50;;;;;;;;;;5007691;28;20049;-57
2020/12/06 05:55:50;;;;;;;20.02;5.60;;;;;;;;;;5006094;28;20065;-54
2020/12/06 05:58:18;;;;;;;25.75;6.28;;;;;;;;;;5003004;28;20046;-54
2020/12/06 06:00:44;;;;;;;19.48;6.80;;;;;;;;;;5006680;28;20065;-56
2020/12/06 06:03:10;;;;;;;23.30;6.35;;;;;;;;;;5007323;28;20045;-56
2020/12/06 06:05:37;;;;;;;12.65;4.95;;;;;;;;;;5007049;28;20098;-56
2020/12/06 06:08:04;;;;;;;13.32;5.90;;;;;;;;;;5007761;28;20042;-56
2020/12/06 06:10:34;;;;;;;18.52;5.57;;;;;;;;;;5006950;28;20034;-56
2020/12/06 06:13:02;;;;;;;15.68;6.28;;;;;;;;;;5007169;28;20034;-56
2020/12/06 06:15:30;;;;;;;14.52;5.75;;;;;;;;;;5005772;28;20093;-57
2020/12/06 06:17:56;;;;;;;17.08;6.07;;;;;;;;;;5007902;28;20042;-56
2020/12/06 06:20:22;;;;;;;16.40;5.60;;;;;;;;;;5006944;28;20050;-57
2020/12/06 06:22:49;;;;;;;13.50;5.18;;;;;;;;;;5009221;28;20042;-57
2020/12/06 06:25:15;;;;;;;17.50;5.63;;;;;;;;;;5009749;28;20058;-55
2020/12/06 06:27:41;;;;;;;19.63;5.70;;;;;;;;;;5008903;28;20046;-57
2020/12/06 06:30:08;;;;;;;18.17;5.57;;;;;;;;;;5010825;28;20049;-56
2020/12/06 06:32:34;;;;;;;16.23;5.13;;;;;;;;;;5011993;28;20116;-56
2020/12/06 06:35:01;;;;;;;20.02;5.35;;;;;;;;;;5008706;28;20073;-56
2020/12/06 06:37:28;;;;;;;18.58;5.20;;;;;;;;;;5008311;28;20045;-55
2020/12/06 06:39:57;;;;;;;16.80;5.65;;;;;;;;;;5009046;28;20053;-55
2020/12/06 06:42:25;;;;;;;14.65;5.22;;;;;;;;;;5012546;28;20029;-56
2020/12/06 06:44:55;;;;;;;13.40;4.40;;;;;;;;;;5010927;28;20049;-56
2020/12/06 06:47:22;;;;;;;21.00;4.90;;;;;;;;;;5009578;28;20510;-55
2020/12/06 06:49:58;;;;;;;14.88;4.40;;;;;;;;;;5008840;28;20050;-56
2020/12/06 06:52:25;;;;;;;14.98;4.65;;;;;;;;;;5010628;28;20072;-57
2020/12/06 06:54:55;;;;;;;18.88;4.82;;;;;;;;;;5011040;28;20056;-56
2020/12/06 06:57:22;;;;;;;17.67;4.88;;;;;;;;;;5009406;28;20046;-56
2020/12/06 06:59:55;;;;;;;18.55;5.38;;;;;;;;;;5027494;28;20072;-56
2020/12/06 07:02:33;;;;;;;13.65;4.88;;;;;;;;;;5009684;28;20038;-56
2020/12/06 07:04:59;;;;;;;17.10;4.82;;;;;;;;;;5011982;28;20046;-57
2020/12/06 07:07:37;;;;;;;14.98;4.45;;;;;;;;;;5009592;28;20046;-55
2020/12/06 07:10:06;;;;;;;20.90;4.55;;;;;;;;;;5009966;28;20105;-56
2020/12/06 07:12:36;;;;;;;18.38;4.72;;;;;;;;;;5010437;28;20093;-56
2020/12/06 07:15:05;;;;;;;14.68;4.20;;;;;;;;;;5009274;28;20117;-56
2020/12/06 07:17:31;;;;;;;15.07;4.70;;;;;;;;;;5010172;28;20201;-56
2020/12/06 07:19:56;;;;;;;18.90;4.55;;;;;;;;;;5010800;28;20101;-57
2020/12/06 07:22:22;;;;;;;19.52;5.05;;;;;;;;;;5011736;28;20046;-57
2020/12/06 07:24:48;;;;;;;17.20;4.18;;;;;;;;;;5009965;28;20042;-57
2020/12/06 07:27:14;;;;;;;17.02;5.03;;;;;;;;;;5009336;28;20075;-56
2020/12/06 07:29:41;;;;;;;19.95;6.25;;;;;;;;;;5009393;28;20041;-54
2020/12/06 07:32:08;;;;;;;18.13;6.70;;;;;;;;;;5011193;28;20549;-56
2020/12/06 07:34:34;;;;;;;17.00;5.30;;;;;;;;;;5006101;28;20034;-56
2020/12/06 07:37:00;;;;;;;16.48;4.95;;;;;;;;;;5011018;28;20045;-56
2020/12/06 07:39:26;;;;;;;23.67;4.97;;;;;;;;;;5009326;28;20038;-57
2020/12/06 07:41:52;;;;;;;15.85;4.90;;;;;;;;;;5010543;28;20142;-57
2020/12/06 07:44:21;;;;;;;17.38;5.40;;;;;;;;;;5009861;28;20041;-55
2020/12/06 07:47:00;;;;;;;18.10;4.70;;;;;;;;;;5009437;28;20069;-57
2020/12/06 07:49:25;;;;;;;15.60;4.75;;;;;;;;;;5006265;28;20038;-56
2020/12/06 07:51:54;;;;;;;17.00;4.57;;;;;;;;;;5009931;28;20423;-57
2020/12/06 07:54:20;;;;;;;18.98;5.88;;;;;;;;;;5008703;28;20045;-56
2020/12/06 07:56:47;;;;;;;17.30;5.00;;;;;;;;;;5009481;28;20037;-56
2020/12/06 07:59:23;;;;;;;20.38;4.38;;;;;;;;;;5008586;28;20042;-56
2020/12/06 08:01:50;;;;;;;16.45;4.32;;;;;;;;;;5008627;28;20050;-56
2020/12/06 08:04:19;;;;;;;21.98;5.20;;;;;;;;;;5009368;28;20039;-56
2020/12/06 08:06:46;;;;;;;15.50;4.63;;;;;;;;;;5008562;28;20050;-56
2020/12/06 08:09:13;;;;;;;13.43;4.45;;;;;;;;;;5009009;28;20042;-56
2020/12/06 08:11:42;;;;;;;12.25;4.30;;;;;;;;;;5008395;28;20038;-57
2020/12/06 08:14:09;;;;;;;21.88;4.90;;;;;;;;;;5009104;28;20045;-57
2020/12/06 08:16:35;;;;;;;12.27;4.45;;;;;;;;;;5009648;28;20420;-57
2020/12/06 08:19:01;;;;;;;18.15;4.93;;;;;;;;;;5038574;28;20045;-57
2020/12/06 08:21:40;;;;;;;12.80;4.07;;;;;;;;;;5007088;28;20062;-57
2020/12/06 08:24:16;;;;;;;11.75;5.03;;;;;;;;;;5011215;28;20069;-57
2020/12/06 08:26:42;;;;;;;12.27;3.83;;;;;;;;;;5008946;28;20049;-57
2020/12/06 08:29:08;;;;;;;16.45;3.80;;;;;;;;;;5010047;28;20044;-57
2020/12/06 08:31:34;;;;;;;12.77;3.42;;;;;;;;;;5006928;28;20030;-58
2020/12/06 08:34:09;;;;;;;15.00;3.78;;;;;;;;;;5007410;28;20038;-57
2020/12/06 08:36:35;;;;;;;9.57;2.70;;;;;;;;;;5008884;28;20038;-58
2020/12/06 08:39:01;;;;;;;9.15;2.55;;;;;;;;;;5007856;28;20141;-57
2020/12/06 08:41:27;;;;;;;7.55;2.58;;;;;;;;;;5007582;28;20053;-57
2020/12/06 08:43:53;;;;;;;9.75;2.80;;;;;;;;;;5007928;28;20074;-58
2020/12/06 08:46:21;;;;;;;10.52;2.38;;;;;;;;;;5006957;28;20042;-58
2020/12/06 08:48:48;;;;;;;11.82;3.05;;;;;;;;;;5008475;28;20498;-58
2020/12/06 08:51:24;;;;;;;5.25;1.88;;;;;;;;;;5009047;28;20048;-58
2020/12/06 08:53:50;;;;;;;9.40;2.03;;;;;;;;;;5008855;28;20042;-57
2020/12/06 08:56:25;;;;;;;12.77;2.03;;;;;;;;;;5009753;28;20042;-57
2020/12/06 08:58:51;;;;;;;8.40;1.90;;;;;;;;;;5007733;28;20141;-57
2020/12/06 09:01:17;;;;;;;7.60;2.25;;;;;;;;;;5005579;28;20143;-57
2020/12/06 09:03:43;;;;;;;8.18;2.13;;;;;;;;;;5009871;28;20056;-57
2020/12/06 09:06:16;;;;;;;13.63;3.05;;;;;;;;;;5009282;28;20042;-57
2020/12/06 09:08:42;;;;;;;11.23;2.20;;;;;;;;;;5006049;28;20058;-56
2020/12/06 09:11:18;;;;;;;9.32;2.20;;;;;;;;;;5010026;28;20105;-52
2020/12/06 09:13:44;;;;;;;8.95;1.90;;;;;;;;;;5022373;28;20095;-53
2020/12/06 09:16:10;;;;;;;11.57;1.67;;;;;;;;;;5008694;28;20629;-50
2020/12/06 09:18:36;;;;;;;8.85;1.42;;;;;;;;;;5006871;28;20052;-54
2020/12/06 09:21:03;;;;;;;7.32;1.50;;;;;;;;;;5006566;28;20066;-55
2020/12/06 09:23:29;;;;;;;7.00;1.60;;;;;;;;;;5008693;28;20054;-54
2020/12/06 09:25:57;;;;;;;3.67;1.20;;;;;;;;;;5009413;28;20044;-55
2020/12/06 09:28:23;;;;;;;4.28;1.17;;;;;;;;;;5007939;28;20038;-55
2020/12/06 09:30:49;;;;;;;12.02;1.70;;;;;;;;;;5006287;28;20048;-54
2020/12/06 09:33:15;;;;;;;10.75;1.50;;;;;;;;;;5007629;28;20140;-58
2020/12/06 09:35:41;;;;;;;6.13;1.23;;;;;;;;;;5005859;28;20053;-55
2020/12/06 09:38:06;;;;;;;6.13;1.33;;;;;;;;;;5007277;28;20041;-55
2020/12/06 09:40:32;;;;;;;6.13;1.30;;;;;;;;;;5006529;28;20041;-53
2020/12/06 09:42:58;;;;;;;3.53;0.98;;;;;;;;;;5007811;28;20040;-51
2020/12/06 09:45:24;;;;;;;8.52;1.48;;;;;;;;;;5006629;28;20150;-55
2020/12/06 09:47:50;;;;;;;4.97;1.10;;;;;;;;;;5006197;28;20077;-53
2020/12/06 09:50:16;;;;;;;5.68;1.17;;;;;;;;;;5007234;28;20041;-55
2020/12/06 09:52:42;;;;;;;6.20;1.90;;;;;;;;;;4990145;28;20034;-54
2020/12/06 09:55:08;;;;;;;5.75;1.40;;;;;;;;;;5002988;28;20030;-54
2020/12/06 09:57:34;;;;;;;6.38;1.27;;;;;;;;;;5008978;28;20045;-54
2020/12/06 09:59:59;;;;;;;5.00;1.00;;;;;;;;;;5008044;28;20034;-52
2020/12/06 10:02:25;;;;;;;5.55;1.30;;;;;;;;;;5006351;28;20112;-55
2020/12/06 10:04:51;;;;;;;5.28;1.55;;;;;;;;;;5007313;28;20437;-52
2020/12/06 10:07:20;;;;;;;9.30;1.52;;;;;;;;;;5007956;28;20080;-53
2020/12/06 10:09:49;;;;;;;9.65;1.42;;;;;;;;;;4993635;28;20050;-53
2020/12/06 10:12:15;;;;;;;3.80;1.38;;;;;;;;;;4986228;28;20038;-51
2020/12/06 10:14:41;;;;;;;4.68;1.63;;;;;;;;;;5007245;28;20049;-52
2020/12/06 10:17:07;;;;;;;9.07;1.17;;;;;;;;;;5038269;28;20034;-55
2020/12/06 10:19:33;;;;;;;4.47;1.00;;;;;;;;;;5006704;28;20041;-51
2020/12/06 10:21:59;;;;;;;5.07;1.40;;;;;;;;;;5009189;28;20045;-54
2020/12/06 10:24:24;;;;;;;7.75;1.27;;;;;;;;;;5006441;28;20050;-52
2020/12/06 10:26:54;;;;;;;9.00;1.40;;;;;;;;;;5007260;28;20050;-52
2020/12/06 10:29:20;;;;;;;3.60;1.00;;;;;;;;;;5006183;28;20153;-52
2020/12/06 10:31:53;;;;;;;6.97;1.13;;;;;;;;;;5037875;28;20418;-51
2020/12/06 10:34:20;;;;;;;3.33;0.90;;;;;;;;;;5007321;28;20525;-54
2020/12/06 10:36:50;;;;;;;4.25;1.00;;;;;;;;;;5009862;28;20042;-54
2020/12/06 10:39:16;;;;;;;5.25;0.90;;;;;;;;;;5006540;28;20065;-53
2020/12/06 10:41:42;;;;;;;11.02;1.67;;;;;;;;;;4997759;28;20046;-53
2020/12/06 10:44:08;;;;;;;4.35;1.10;;;;;;;;;;5007249;28;20493;-53
2020/12/06 10:46:33;;;;;;;3.85;1.10;;;;;;;;;;5007193;28;20053;-50
2020/12/06 10:48:59;;;;;;;2.65;0.90;;;;;;;;;;5005761;28;20162;-54
2020/12/06 10:51:25;;;;;;;7.45;1.13;;;;;;;;;;5005461;28;20060;-54
2020/12/06 10:53:51;;;;;;;4.60;0.90;;;;;;;;;;5009236;28;20061;-58
2020/12/06 10:56:19;;;;;;;6.07;0.93;;;;;;;;;;5007658;28;20229;-52
2020/12/06 10:58:45;;;;;;;5.22;1.00;;;;;;;;;;5006415;28;20045;-54
2020/12/06 11:01:11;;;;;;;7.78;1.10;;;;;;;;;;5007832;28;20061;-51
2020/12/06 11:03:37;;;;;;;3.33;0.70;;;;;;;;;;5006145;28;20047;-51
2020/12/06 11:06:03;;;;;;;2.88;0.82;;;;;;;;;;5007643;28;20099;-51
2020/12/06 11:08:29;;;;;;;4.55;1.20;;;;;;;;;;5008636;28;20220;-52
2020/12/06 11:10:55;;;;;;;2.70;0.68;;;;;;;;;;5010013;28;20050;-54
2020/12/06 11:13:21;;;;;;;3.00;1.13;;;;;;;;;;5011180;28;21119;-56
2020/12/06 11:15:46;;;;;;;2.80;0.80;;;;;;;;;;5010677;28;20034;-54
2020/12/06 11:18:12;;;;;;;2.88;0.63;;;;;;;;;;5011826;28;20532;-52
2020/12/06 11:20:38;;;;;;;1.95;0.57;;;;;;;;;;5011162;28;20045;-50
2020/12/06 11:23:04;;;;;;;3.55;0.75;;;;;;;;;;5011024;28;20102;-54
2020/12/06 11:25:30;;;;;;;3.67;0.82;;;;;;;;;;5010063;28;20045;-54
2020/12/06 11:27:56;;;;;;;2.60;0.65;;;;;;;;;;5010096;28;20490;-52
2020/12/06 11:30:22;;;;;;;2.63;0.68;;;;;;;;;;5010200;28;20037;-52
2020/12/06 11:32:48;;;;;;;5.53;0.60;;;;;;;;;;5009777;28;20490;-54
2020/12/06 11:35:14;;;;;;;2.55;0.60;;;;;;;;;;5008184;28;20049;-52
2020/12/06 11:37:39;;;;;;;2.10;0.60;;;;;;;;;;5011549;28;20447;-54
2020/12/06 11:40:05;;;;;;;1.73;0.50;;;;;;;;;;5008601;28;20046;-53
2020/12/06 11:42:31;;;;;;;3.10;0.60;;;;;;;;;;5010392;28;20111;-52
2020/12/06 11:44:57;;;;;;;2.75;0.60;;;;;;;;;;5009152;28;20081;-52
2020/12/06 11:47:23;;;;;;;2.58;0.70;;;;;;;;;;5009133;28;20054;-51
2020/12/06 11:49:50;;;;;;;2.40;0.60;;;;;;;;;;5010949;28;20054;-55
2020/12/06 11:52:15;;;;;;;2.40;0.60;;;;;;;;;;5009912;28;20161;-52
2020/12/06 11:54:41;;;;;;;2.67;0.55;;;;;;;;;;5011086;28;20054;-52
2020/12/06 11:57:07;;;;;;;1.75;0.50;;;;;;;;;;5008509;28;20039;-53
2020/12/06 11:59:33;;;;;;;2.33;0.60;;;;;;;;;;5008380;28;20049;-51
2020/12/06 12:01:59;;;;;;;1.83;0.55;;;;;;;;;;5011123;28;20045;-58
2020/12/06 12:04:25;;;;;;;1.80;0.60;;;;;;;;;;5009950;28;20038;-51
2020/12/06 12:06:51;;;;;;;1.88;0.60;;;;;;;;;;5010100;28;20077;-51
2020/12/06 12:09:17;;;;;;;1.77;0.60;;;;;;;;;;5009244;28;20577;-50
2020/12/06 12:11:43;;;;;;;1.88;0.60;;;;;;;;;;5007801;28;20038;-53
2020/12/06 12:14:08;;;;;;;5.07;0.52;;;;;;;;;;5009245;28;20038;-49
2020/12/06 12:16:34;;;;;;;1.55;0.40;;;;;;;;;;5009075;28;20034;-52
2020/12/06 12:19:06;;;;;;;2.60;0.68;;;;;;;;;;5007915;28;20045;-52
2020/12/06 12:21:32;;;;;;;1.63;0.50;;;;;;;;;;5009461;28;20042;-52
2020/12/06 12:23:58;;;;;;;3.42;0.82;;;;;;;;;;5009484;28;20040;-50
2020/12/06 12:26:24;;;;;;;2.10;0.60;;;;;;;;;;5007583;28;20073;-53
2020/12/06 12:28:50;;;;;;;2.78;0.90;;;;;;;;;;5007415;28;20044;-50
2020/12/06 12:31:16;;;;;;;1.73;0.60;;;;;;;;;;5010274;28;20065;-48
2020/12/06 12:33:42;;;;;;;3.55;0.50;;;;;;;;;;5007083;28;20042;-54
2020/12/06 12:36:08;;;;;;;2.20;0.60;;;;;;;;;;5010649;28;20116;-53
2020/12/06 12:38:34;;;;;;;1.90;0.50;;;;;;;;;;5008198;28;20042;-54
2020/12/06 12:40:59;;;;;;;2.85;0.52;;;;;;;;;;5007703;28;20848;-53
2020/12/06 12:43:25;;;;;;;1.35;0.50;;;;;;;;;;5008421;28;20045;-53
2020/12/06 12:45:51;;;;;;;4.07;0.60;;;;;;;;;;5009108;28;20038;-54
2020/12/06 12:48:17;;;;;;;1.25;0.50;;;;;;;;;;5007501;28;20099;-52
2020/12/06 12:50:43;;;;;;;2.05;0.50;;;;;;;;;;5010095;28;20135;-52
2020/12/06 12:53:09;;;;;;;1.65;0.50;;;;;;;;;;5009557;28;20061;-53
2020/12/06 12:55:34;;;;;;;2.75;0.85;;;;;;;;;;5008498;28;20038;-53
2020/12/06 12:58:02;;;;;;;1.75;0.50;;;;;;;;;;5010165;28;20069;-54
2020/12/06 13:00:28;;;;;;;1.98;0.57;;;;;;;;;;5008479;28;20042;-53
2020/12/06 13:02:54;;;;;;;6.05;0.50;;;;;;;;;;5039028;28;20157;-52
2020/12/06 13:05:20;;;;;;;1.42;0.50;;;;;;;;;;5008319;28;20111;-54
2020/12/06 13:07:46;;;;;;;3.95;0.60;;;;;;;;;;5007155;28;20515;-52
2020/12/06 13:10:13;;;;;;;4.70;0.52;;;;;;;;;;5008398;28;20091;-51
2020/12/06 13:12:42;;;;;;;5.85;0.75;;;;;;;;;;5008918;28;20074;-52
2020/12/06 13:15:08;;;;;;;4.72;0.70;;;;;;;;;;5008550;28;20045;-53
2020/12/06 13:17:34;;;;;;;4.30;0.70;;;;;;;;;;5007083;28;20053;-55
2020/12/06 13:20:00;;;;;;;4.30;0.60;;;;;;;;;;5006707;28;20031;-55
2020/12/06 13:22:27;;;;;;;3.00;0.60;;;;;;;;;;5008387;28;20041;-52
2020/12/06 13:24:53;;;;;;;7.75;0.80;;;;;;;;;;5008728;28;20164;-54
2020/12/06 13:27:19;;;;;;;2.78;0.57;;;;;;;;;;5008182;28;21192;-54
2020/12/06 13:29:45;;;;;;;2.40;0.65;;;;;;;;;;5009258;28;20442;-51
2020/12/06 13:32:11;;;;;;;3.13;1.35;;;;;;;;;;5008405;28;20052;-53
2020/12/06 13:34:37;;;;;;;2.70;0.80;;;;;;;;;;5008015;28;20046;-54
2020/12/06 13:37:03;;;;;;;2.70;0.60;;;;;;;;;;5007631;28;20034;-52
2020/12/06 13:39:32;;;;;;;1.90;0.60;;;;;;;;;;5005862;28;20042;-51
2020/12/06 13:41:58;;;;;;;2.20;0.65;;;;;;;;;;5008848;28;20030;-54
2020/12/06 13:44:24;;;;;;;2.45;0.70;;;;;;;;;;5007069;28;20440;-54
2020/12/06 13:46:51;;;;;;;2.40;0.50;;;;;;;;;;5008739;28;20053;-52
2020/12/06 13:49:18;;;;;;;4.20;0.70;;;;;;;;;;5007003;28;20097;-51
2020/12/06 13:51:45;;;;;;;1.98;0.60;;;;;;;;;;5008683;28;20061;-52
2020/12/06 13:54:11;;;;;;;3.72;0.80;;;;;;;;;;5007858;28;20042;-52
2020/12/06 13:56:36;;;;;;;4.07;0.90;;;;;;;;;;5008253;28;21328;-54
2020/12/06 13:59:02;;;;;;;2.90;0.70;;;;;;;;;;5006158;28;20077;-54
2020/12/06 14:01:28;;;;;;;4.65;0.57;;;;;;;;;;5005466;28;20038;-50
2020/12/06 14:03:54;;;;;;;3.88;0.70;;;;;;;;;;5007856;28;23577;-50
2020/12/06 14:06:20;;;;;;;2.67;0.70;;;;;;;;;;5006500;28;20054;-53
2020/12/06 14:08:46;;;;;;;4.50;0.70;;;;;;;;;;5006412;28;20052;-54
2020/12/06 14:11:12;;;;;;;6.50;0.70;;;;;;;;;;5007088;28;20065;-51
2020/12/06 14:13:37;;;;;;;1.88;0.52;;;;;;;;;;5006600;28;20589;-52
2020/12/06 14:16:06;;;;;;;2.10;0.60;;;;;;;;;;5009486;28;21270;-53
2020/12/06 14:18:36;;;;;;;5.03;0.60;;;;;;;;;;5006413;28;20072;-51
2020/12/06 14:21:02;;;;;;;2.88;0.60;;;;;;;;;;5007491;28;20096;-51
2020/12/06 14:23:27;;;;;;;4.35;0.90;;;;;;;;;;5006714;28;20202;-53
2020/12/06 14:25:53;;;;;;;5.90;0.70;;;;;;;;;;5008061;28;20136;-54
2020/12/06 14:28:19;;;;;;;1.58;0.60;;;;;;;;;;5005745;28;20073;-52
2020/12/06 14:30:45;;;;;;;5.75;1.00;;;;;;;;;;5007138;28;20041;-53
2020/12/06 14:33:11;;;;;;;9.15;0.93;;;;;;;;;;5010074;28;20038;-49